createdAt,value
2024-03-11T00:01:31.582Z,100612.50
2024-03-11T00:03:59.114Z,100623.78
2024-03-11T00:06:26.563Z,100621.41
2024-03-11T00:08:53.930Z,100618.16
2024-03-11T00:11:21.334Z,100622.16
2024-03-11T00:13:49.955Z,100614.13
2024-03-11T00:16:18.127Z,100621.94
2024-03-11T00:18:45.452Z,100622.38
2024-03-11T00:21:13.400Z,100627.81
2024-03-11T00:23:40.874Z,100629.28
2024-03-11T00:26:08.455Z,100622.63
2024-03-11T00:28:38.191Z,100629.00
2024-03-11T00:31:05.577Z,100618.94
2024-03-11T00:33:33.089Z,100623.78
2024-03-11T00:36:01.320Z,100626.28
2024-03-11T00:38:30.732Z,100629.88
2024-03-11T00:40:58.239Z,100624.69
2024-03-11T00:43:25.658Z,100624.13
2024-03-11T00:45:53.117Z,100625.16
2024-03-11T00:48:22.182Z,100627.50
2024-03-11T00:50:49.735Z,100632.53
2024-03-11T00:53:17.186Z,100632.53
2024-03-11T00:55:44.923Z,100634.31
2024-03-11T00:58:14.509Z,100639.97
2024-03-11T01:00:42.926Z,100634.38
2024-03-11T01:03:10.544Z,100637.34
2024-03-11T01:05:40.904Z,100646.81
2024-03-11T01:08:08.698Z,100641.06
2024-03-11T01:10:36.438Z,100635.47
2024-03-11T01:13:04.116Z,100640.78
2024-03-11T01:15:31.532Z,100639.91
2024-03-11T01:17:59.594Z,100644.78
2024-03-11T01:20:27.039Z,100642.84
2024-03-11T01:22:54.530Z,100645.94
2024-03-11T01:25:21.850Z,100647.09
2024-03-11T01:27:49.364Z,100646.66
2024-03-11T01:30:16.682Z,100653.25
2024-03-11T01:32:46.481Z,100656.44
2024-03-11T01:35:15.287Z,100653.88
2024-03-11T01:37:43.297Z,100656.34
2024-03-11T01:40:11.649Z,100650.66
2024-03-11T01:42:45.264Z,100652.88
2024-03-11T01:45:17.935Z,100657.25
2024-03-11T01:47:45.659Z,100661.50
2024-03-11T01:50:15.696Z,100660.69
2024-03-11T01:53:00.450Z,100659.59
2024-03-11T01:55:29.371Z,100664.84
2024-03-11T01:57:59.045Z,100660.94
2024-03-11T02:00:26.777Z,100662.56
2024-03-11T02:02:55.964Z,100662.25
2024-03-11T02:05:27.526Z,100666.06
2024-03-11T02:07:59.023Z,100673.44
2024-03-11T02:10:28.265Z,100678.47
2024-03-11T02:12:57.388Z,100674.91
2024-03-11T02:15:24.792Z,100684.38
2024-03-11T02:17:52.918Z,100686.88
2024-03-11T02:20:20.949Z,100683.31
2024-03-11T02:22:49.403Z,100687.31
2024-03-11T02:25:17.765Z,100682.81
2024-03-11T02:27:46.750Z,100688.56
2024-03-11T02:30:14.272Z,100684.44
2024-03-11T02:32:41.794Z,100685.69
2024-03-11T02:35:10.487Z,100679.03
2024-03-11T02:37:39.725Z,100689.53
2024-03-11T02:40:11.045Z,100689.38
2024-03-11T02:42:38.576Z,100684.94
2024-03-11T02:45:12.923Z,100686.22
2024-03-11T02:47:40.486Z,100681.94
2024-03-11T02:50:09.248Z,100689.00
2024-03-11T02:52:40.224Z,100695.44
2024-03-11T02:55:07.881Z,100698.53
2024-03-11T02:57:35.328Z,100701.03
2024-03-11T03:00:04.381Z,100703.25
2024-03-11T03:02:31.748Z,100689.97
2024-03-11T03:04:59.177Z,100694.25
2024-03-11T03:07:27.139Z,100700.88
2024-03-11T03:09:54.953Z,100697.34
2024-03-11T03:12:25.091Z,100699.66
2024-03-11T03:14:52.579Z,100697.72
2024-03-11T03:17:20.142Z,100705.09
2024-03-11T03:19:47.430Z,100706.22
2024-03-11T03:22:14.930Z,100706.94
2024-03-11T03:24:42.222Z,100715.19
2024-03-11T03:27:09.769Z,100709.13
2024-03-11T03:29:41.444Z,100707.50
2024-03-11T03:32:10.252Z,100711.66
2024-03-11T03:34:37.697Z,100709.88
2024-03-11T03:37:05.177Z,100709.50
2024-03-11T03:39:32.476Z,100719.56
2024-03-11T03:41:59.856Z,100717.03
2024-03-11T03:44:27.194Z,100712.19
2024-03-11T03:46:56.663Z,100714.69
2024-03-11T03:49:24.046Z,100716.31
2024-03-11T03:51:51.465Z,100720.59
2024-03-11T03:54:19.475Z,100713.06
2024-03-11T03:56:47.000Z,100724.94
2024-03-11T03:59:14.484Z,100720.06
2024-03-11T04:01:41.972Z,100721.09
2024-03-11T04:04:09.372Z,100725.03
2024-03-11T04:06:36.758Z,100722.44
2024-03-11T04:09:04.099Z,100718.41
2024-03-11T04:11:31.620Z,100722.94
2024-03-11T04:13:59.102Z,100714.78
2024-03-11T04:16:28.610Z,100719.88
2024-03-11T04:18:56.439Z,100714.94
2024-03-11T04:21:23.781Z,100720.91
2024-03-11T04:23:51.943Z,100712.72
2024-03-11T04:26:19.487Z,100721.38
2024-03-11T04:28:46.986Z,100704.75
2024-03-11T04:31:14.413Z,100716.47
2024-03-11T04:33:41.996Z,100710.47
2024-03-11T04:36:09.640Z,100716.13
2024-03-11T04:38:38.117Z,100715.84
2024-03-11T04:41:05.531Z,100719.00
2024-03-11T04:43:34.474Z,100713.72
2024-03-11T04:46:02.686Z,100713.78
2024-03-11T04:48:30.092Z,100718.84
2024-03-11T04:50:57.614Z,100707.34
2024-03-11T04:53:24.982Z,100708.44
2024-03-11T04:55:53.581Z,100715.13
2024-03-11T04:58:20.841Z,100726.28
2024-03-11T05:00:48.357Z,100717.72
2024-03-11T05:03:15.752Z,100730.66
2024-03-11T05:05:43.248Z,100731.56
2024-03-11T05:08:11.014Z,100728.16
2024-03-11T05:10:39.455Z,100722.09
2024-03-11T05:13:07.316Z,100735.47
2024-03-11T05:15:34.904Z,100731.03
2024-03-11T05:18:02.697Z,100728.66
2024-03-11T05:20:30.354Z,100735.50
2024-03-11T05:22:57.902Z,100725.13
2024-03-11T05:25:25.661Z,100738.75
2024-03-11T05:27:53.213Z,100743.38
2024-03-11T05:30:20.696Z,100749.91
2024-03-11T05:32:49.961Z,100744.13
2024-03-11T05:35:21.031Z,100740.84
2024-03-11T05:37:50.686Z,100743.66
2024-03-11T05:40:19.524Z,100732.81
2024-03-11T05:42:50.111Z,100738.88
2024-03-11T05:45:17.596Z,100740.47
2024-03-11T05:47:46.940Z,100733.19
2024-03-11T05:50:16.351Z,100741.31
2024-03-11T05:52:46.631Z,100740.66
2024-03-11T05:55:14.473Z,100738.72
2024-03-11T05:57:44.556Z,100737.53
2024-03-11T06:00:18.236Z,100735.84
2024-03-11T06:02:47.040Z,100731.94
2024-03-11T06:05:15.176Z,100733.78
2024-03-11T06:07:44.133Z,100728.28
2024-03-11T06:10:11.933Z,100733.81
2024-03-11T06:12:40.131Z,100729.47
2024-03-11T06:15:07.832Z,100725.66
2024-03-11T06:17:35.845Z,100727.69
2024-03-11T06:20:11.222Z,100723.88
2024-03-11T06:22:40.630Z,100728.81
2024-03-11T06:25:08.718Z,100730.88
2024-03-11T06:27:37.685Z,100719.25
2024-03-11T06:30:09.106Z,100720.38
2024-03-11T06:32:36.860Z,100727.09
2024-03-11T06:35:06.880Z,100722.84
2024-03-11T06:37:34.636Z,100718.06
2024-03-11T06:40:03.687Z,100721.13
2024-03-11T06:42:31.336Z,100722.09
2024-03-11T06:44:59.168Z,100713.47
2024-03-11T06:47:27.144Z,100707.13
2024-03-11T06:49:55.430Z,100707.13
2024-03-11T06:52:23.281Z,100716.03
2024-03-11T06:54:51.048Z,100707.91
2024-03-11T06:57:18.427Z,100703.84
2024-03-11T06:59:46.786Z,100697.25
2024-03-11T07:02:14.974Z,100713.38
2024-03-11T07:04:42.473Z,100703.09
2024-03-11T07:07:09.944Z,100710.56
2024-03-11T07:09:37.221Z,100698.66
2024-03-11T07:12:04.949Z,100702.22
2024-03-11T07:14:32.450Z,100701.84
2024-03-11T07:17:02.538Z,100700.41
2024-03-11T07:19:32.243Z,100697.50
2024-03-11T07:22:00.380Z,100694.72
2024-03-11T07:24:28.472Z,100696.84
2024-03-11T07:26:56.739Z,100691.25
2024-03-11T07:29:24.205Z,100692.63
2024-03-11T07:31:55.263Z,100691.84
2024-03-11T07:34:22.933Z,100681.63
2024-03-11T07:36:50.999Z,100683.03
2024-03-11T07:39:18.541Z,100674.50
2024-03-11T07:41:47.158Z,100672.81
2024-03-11T07:44:14.615Z,100675.75
2024-03-11T07:46:41.999Z,100675.19
2024-03-11T07:49:13.040Z,100671.91
2024-03-11T07:51:42.081Z,100672.03
2024-03-11T07:54:13.203Z,100667.50
2024-03-11T07:56:41.270Z,100672.72
2024-03-11T07:59:08.842Z,100683.44
2024-03-11T08:01:37.891Z,100685.66
2024-03-11T08:04:05.364Z,100681.44
2024-03-11T08:06:32.717Z,100682.31
2024-03-11T08:09:00.775Z,100696.78
2024-03-11T08:11:28.636Z,100676.72
2024-03-11T08:13:56.019Z,100681.00
2024-03-11T08:16:23.501Z,100671.66
2024-03-11T08:18:51.140Z,100672.94
2024-03-11T08:22:06.102Z,100663.03
2024-03-11T08:25:01.049Z,100645.50
2024-03-11T08:27:35.082Z,100653.78
2024-03-11T08:30:27.977Z,100649.34
2024-03-11T08:33:17.341Z,100645.00
2024-03-11T08:35:46.130Z,100633.78
2024-03-11T08:38:14.919Z,100624.03
2024-03-11T08:40:43.172Z,100623.50
2024-03-11T08:43:11.164Z,100623.84
2024-03-11T08:45:43.248Z,100621.22
2024-03-11T08:48:11.893Z,100602.78
2024-03-11T08:50:39.475Z,100615.41
2024-03-11T08:53:10.097Z,100604.56
2024-03-11T08:55:37.669Z,100600.53
2024-03-11T08:58:07.042Z,100598.16
2024-03-11T09:00:37.807Z,100598.41
2024-03-11T09:03:06.204Z,100593.22
2024-03-11T09:05:33.716Z,100604.31
2024-03-11T09:08:04.560Z,100602.25
2024-03-11T09:10:32.119Z,100607.78
2024-03-11T09:13:00.140Z,100615.41
2024-03-11T09:15:27.907Z,100605.63
2024-03-11T09:17:55.827Z,100603.00
2024-03-11T09:20:28.286Z,100600.16
2024-03-11T09:23:00.400Z,100609.88
2024-03-11T09:25:28.269Z,100592.56
2024-03-11T09:28:03.701Z,100582.91
2024-03-11T09:30:34.756Z,100578.38
2024-03-11T09:33:02.935Z,100580.22
2024-03-11T09:35:30.848Z,100590.56
2024-03-11T09:37:59.270Z,100579.84
2024-03-11T09:40:29.363Z,100587.00
2024-03-11T09:43:00.608Z,100587.09
2024-03-11T09:45:31.284Z,100590.13
2024-03-11T09:48:02.176Z,100586.88
2024-03-11T09:50:35.319Z,100575.94
2024-03-11T09:53:20.718Z,100577.97
2024-03-11T09:55:49.296Z,100576.69
2024-03-11T09:58:20.762Z,100572.41
2024-03-11T10:00:53.966Z,100578.00
2024-03-11T10:03:23.885Z,100570.78
2024-03-11T10:05:59.584Z,100563.50
2024-03-11T10:08:28.343Z,100555.22
2024-03-11T10:11:12.563Z,100553.09
2024-03-11T10:13:40.234Z,100548.00
2024-03-11T10:16:26.563Z,100547.19
2024-03-11T10:19:12.932Z,100546.72
2024-03-11T10:21:41.657Z,100536.34
2024-03-11T10:24:12.163Z,100533.84
2024-03-11T10:26:43.657Z,100531.22
2024-03-11T10:29:18.077Z,100518.91
2024-03-11T10:31:49.164Z,100525.00
2024-03-11T10:34:26.284Z,100512.75
2024-03-11T10:36:58.298Z,100515.88
2024-03-11T10:39:32.884Z,100517.78
2024-03-11T10:42:02.969Z,100509.31
2024-03-11T10:44:31.169Z,100501.19
2024-03-11T10:47:08.679Z,100496.16
2024-03-11T10:49:41.602Z,100494.69
2024-03-11T10:52:14.277Z,100488.22
2024-03-11T10:54:47.072Z,100494.16
2024-03-11T10:57:37.557Z,100474.72
2024-03-11T11:00:31.304Z,100477.72
2024-03-11T11:03:13.571Z,100468.97
2024-03-11T11:06:01.719Z,100467.94
2024-03-11T11:08:32.573Z,100461.84
2024-03-11T11:11:00.368Z,100454.88
2024-03-11T11:13:30.600Z,100458.13
2024-03-11T11:16:05.157Z,100460.94
2024-03-11T11:18:37.579Z,100455.28
2024-03-11T11:21:12.053Z,100452.78
2024-03-11T11:23:42.253Z,100450.69
2024-03-11T11:26:12.071Z,100445.88
2024-03-11T11:28:40.492Z,100443.25
2024-03-11T11:31:14.784Z,100445.25
2024-03-11T11:33:50.858Z,100441.81
2024-03-11T11:36:33.999Z,100440.38
2024-03-11T11:39:15.845Z,100437.81
2024-03-11T11:41:46.925Z,100445.59
2024-03-11T11:44:26.783Z,100445.84
2024-03-11T11:46:56.212Z,100450.75
2024-03-11T11:49:25.400Z,100450.78
2024-03-11T11:51:53.350Z,100443.81
2024-03-11T11:54:34.708Z,100450.88
2024-03-11T11:57:07.870Z,100451.06
2024-03-11T11:59:38.690Z,100464.22
2024-03-11T12:02:09.848Z,100462.97
2024-03-11T12:04:37.341Z,100457.63
2024-03-11T12:07:05.519Z,100454.00
2024-03-11T12:09:35.782Z,100461.34
2024-03-11T12:12:04.973Z,100452.88
2024-03-11T12:14:33.220Z,100442.50
2024-03-11T12:17:05.563Z,100433.34
2024-03-11T12:19:33.627Z,100430.72
2024-03-11T12:22:01.376Z,100429.88
2024-03-11T12:24:29.317Z,100424.25
2024-03-11T12:26:57.592Z,100416.06
2024-03-11T12:29:26.192Z,100421.59
2024-03-11T12:31:55.682Z,100423.03
2024-03-11T12:34:26.463Z,100413.72
2024-03-11T12:36:56.486Z,100417.81
2024-03-11T12:39:27.957Z,100414.72
2024-03-11T12:41:58.540Z,100417.91
2024-03-11T12:44:27.210Z,100417.53
2024-03-11T12:46:55.266Z,100422.19
2024-03-11T12:49:24.085Z,100413.88
2024-03-11T12:52:05.471Z,100425.28
2024-03-11T12:54:34.436Z,100420.44
2024-03-11T12:57:09.238Z,100431.16
2024-03-11T12:59:38.183Z,100422.34
2024-03-11T13:02:20.450Z,100420.53
2024-03-11T13:04:50.249Z,100423.69
2024-03-11T13:07:20.259Z,100426.69
2024-03-11T13:09:48.203Z,100432.31
2024-03-11T13:12:19.508Z,100434.00
2024-03-11T13:14:49.505Z,100429.19
2024-03-11T13:17:20.220Z,100427.03
2024-03-11T13:19:48.501Z,100434.09
2024-03-11T13:22:19.419Z,100435.13
2024-03-11T13:24:54.743Z,100433.34
2024-03-11T13:27:26.294Z,100429.13
2024-03-11T13:29:55.646Z,100435.03
2024-03-11T13:32:23.927Z,100435.25
2024-03-11T13:34:51.653Z,100437.31
2024-03-11T13:37:19.363Z,100442.44
2024-03-11T13:39:48.335Z,100433.34
2024-03-11T13:42:16.196Z,100439.25
2024-03-11T13:44:43.915Z,100441.63
2024-03-11T13:47:12.083Z,100430.13
2024-03-11T13:49:41.836Z,100439.84
2024-03-11T13:52:10.373Z,100435.81
2024-03-11T13:54:41.324Z,100437.88
2024-03-11T13:57:10.199Z,100434.66
2024-03-11T13:59:38.411Z,100424.84
2024-03-11T14:02:05.965Z,100435.03
2024-03-11T14:04:34.810Z,100439.84
2024-03-11T14:07:03.193Z,100431.25
2024-03-11T14:09:31.112Z,100436.81
2024-03-11T14:11:58.656Z,100430.75
2024-03-11T14:14:26.319Z,100438.03
2024-03-11T14:16:53.641Z,100432.13
2024-03-11T14:19:21.744Z,100437.03
2024-03-11T14:21:49.314Z,100432.09
2024-03-11T14:24:16.890Z,100433.31
2024-03-11T14:26:44.533Z,100438.81
2024-03-11T14:29:17.213Z,100439.06
2024-03-11T14:31:47.912Z,100434.13
2024-03-11T14:34:15.926Z,100439.13
2024-03-11T14:36:46.424Z,100444.22
2024-03-11T14:39:23.140Z,100442.44
2024-03-11T14:41:50.738Z,100430.16
2024-03-11T14:44:18.328Z,100433.66
2024-03-11T14:46:57.033Z,100431.81
2024-03-11T14:49:27.737Z,100435.34
2024-03-11T14:51:56.613Z,100438.09
2024-03-11T14:54:28.568Z,100436.13
2024-03-11T14:56:57.058Z,100436.50
2024-03-11T14:59:25.826Z,100429.28
2024-03-11T15:01:57.228Z,100428.75
2024-03-11T15:04:28.419Z,100427.69
2024-03-11T15:06:56.408Z,100427.34
2024-03-11T15:09:24.364Z,100435.31
2024-03-11T15:11:55.847Z,100432.34
2024-03-11T15:14:23.475Z,100434.47
2024-03-11T15:16:57.633Z,100433.16
2024-03-11T15:19:25.735Z,100431.81
2024-03-11T15:21:53.421Z,100439.22
2024-03-11T15:24:22.709Z,100434.69
2024-03-11T15:26:50.260Z,100432.94
2024-03-11T15:29:18.283Z,100440.91
2024-03-11T15:31:46.368Z,100445.41
2024-03-11T15:34:16.591Z,100452.84
2024-03-11T15:36:44.120Z,100445.88
2024-03-11T15:39:11.476Z,100452.72
2024-03-11T15:41:38.980Z,100444.84
2024-03-11T15:44:06.494Z,100441.13
2024-03-11T15:46:34.335Z,100440.00
2024-03-11T15:49:01.817Z,100434.59
2024-03-11T15:51:29.754Z,100434.50
2024-03-11T15:53:57.845Z,100438.56
2024-03-11T15:56:26.032Z,100444.88
2024-03-11T15:58:55.351Z,100442.44
2024-03-11T16:01:26.984Z,100439.78
2024-03-11T16:03:59.029Z,100442.22
2024-03-11T16:06:27.908Z,100448.09
2024-03-11T16:08:55.683Z,100455.03
2024-03-11T16:11:23.679Z,100442.44
2024-03-11T16:13:53.165Z,100445.06
2024-03-11T16:16:22.431Z,100455.50
2024-03-11T16:18:50.685Z,100447.09
2024-03-11T16:21:19.007Z,100458.03
2024-03-11T16:23:47.664Z,100457.16
2024-03-11T16:26:15.839Z,100454.38
2024-03-11T16:28:44.123Z,100458.34
2024-03-11T16:31:11.992Z,100456.59
2024-03-11T16:33:41.371Z,100459.25
2024-03-11T16:36:11.393Z,100459.34
2024-03-11T16:38:40.843Z,100466.75
2024-03-11T16:41:10.065Z,100459.66
2024-03-11T16:43:37.422Z,100464.75
2024-03-11T16:46:05.211Z,100461.44
2024-03-11T16:48:32.857Z,100461.22
2024-03-11T16:51:00.408Z,100457.22
2024-03-11T16:53:29.562Z,100459.66
2024-03-11T16:55:57.636Z,100461.31
2024-03-11T16:58:25.615Z,100457.22
2024-03-11T17:00:53.358Z,100456.47
2024-03-11T17:03:21.959Z,100467.59
2024-03-11T17:05:49.926Z,100464.19
2024-03-11T17:08:17.545Z,100461.53
2024-03-11T17:10:49.906Z,100460.00
2024-03-11T17:13:20.613Z,100459.88
2024-03-11T17:15:54.742Z,100461.31
2024-03-11T17:18:23.218Z,100463.63
2024-03-11T17:20:56.730Z,100461.06
2024-03-11T17:23:28.298Z,100465.38
2024-03-11T17:25:56.409Z,100464.75
2024-03-11T17:28:27.400Z,100466.94
2024-03-11T17:30:56.051Z,100460.97
2024-03-11T17:33:24.571Z,100468.59
2024-03-11T17:35:52.592Z,100462.63
2024-03-11T17:38:21.283Z,100458.84
2024-03-11T17:40:49.876Z,100460.50
2024-03-11T17:43:20.158Z,100462.53
2024-03-11T17:45:48.604Z,100471.66
2024-03-11T17:48:17.979Z,100463.94
2024-03-11T17:50:49.347Z,100468.03
2024-03-11T17:53:19.761Z,100467.25
2024-03-11T17:55:49.784Z,100461.63
2024-03-11T17:58:17.477Z,100468.69
2024-03-11T18:00:45.153Z,100466.41
2024-03-11T18:03:13.196Z,100468.50
2024-03-11T18:05:42.102Z,100471.81
2024-03-11T18:08:12.580Z,100470.94
2024-03-11T18:10:45.137Z,100470.00
2024-03-11T18:13:15.659Z,100472.22
2024-03-11T18:15:47.575Z,100473.09
2024-03-11T18:18:19.718Z,100479.84
2024-03-11T18:20:48.637Z,100479.06
2024-03-11T18:23:17.857Z,100479.06
2024-03-11T18:25:51.830Z,100483.38
2024-03-11T18:28:21.602Z,100481.41
2024-03-11T18:30:50.013Z,100481.25
2024-03-11T18:33:19.407Z,100489.91
2024-03-11T18:35:47.657Z,100484.94
2024-03-11T18:38:18.630Z,100498.53
2024-03-11T18:40:48.360Z,100487.47
2024-03-11T18:43:20.380Z,100487.38
2024-03-11T18:45:48.191Z,100491.97
2024-03-11T18:48:16.042Z,100488.56
2024-03-11T18:50:45.149Z,100484.47
2024-03-11T18:53:13.396Z,100480.94
2024-03-11T18:55:40.973Z,100480.56
2024-03-11T18:58:10.236Z,100468.19
2024-03-11T19:00:40.195Z,100471.59
2024-03-11T19:03:08.004Z,100481.34
2024-03-11T19:05:35.724Z,100481.56
2024-03-11T19:08:06.213Z,100484.34
2024-03-11T19:10:34.682Z,100484.34
2024-03-11T19:13:05.970Z,100489.19
2024-03-11T19:15:33.777Z,100483.13
2024-03-11T19:18:01.613Z,100482.78
2024-03-11T19:20:31.382Z,100482.66
2024-03-11T19:22:59.689Z,100486.06
2024-03-11T19:25:33.401Z,100482.91
2024-03-11T19:28:03.351Z,100486.22
2024-03-11T19:30:33.734Z,100488.97
2024-03-11T19:33:03.312Z,100494.28
2024-03-11T19:35:31.725Z,100491.97
2024-03-11T19:38:17.739Z,100488.56
2024-03-11T19:40:45.620Z,100491.09
2024-03-11T19:43:13.891Z,100486.78
2024-03-11T19:46:00.032Z,100482.59
2024-03-11T19:48:49.408Z,100484.34
2024-03-11T19:51:34.991Z,100484.09
2024-03-11T19:54:20.667Z,100499.13
2024-03-11T19:57:20.098Z,100503.31
2024-03-11T20:00:27.159Z,100497.59
2024-03-11T20:03:01.846Z,100502.66
2024-03-11T20:05:49.652Z,100502.66
2024-03-11T20:08:37.591Z,100498.91
2024-03-11T20:11:23.745Z,100501.31
2024-03-11T20:14:07.116Z,100504.88
2024-03-11T20:16:34.655Z,100502.34
2024-03-11T20:19:20.828Z,100503.22
2024-03-11T20:22:11.691Z,100500.78
2024-03-11T20:25:02.804Z,100511.63
2024-03-11T20:27:47.352Z,100502.97
2024-03-11T20:30:17.765Z,100510.38
2024-03-11T20:33:18.065Z,100511.16
2024-03-11T20:35:46.304Z,100508.59
2024-03-11T20:38:15.499Z,100509.38
2024-03-11T20:40:47.463Z,100508.50
2024-03-11T20:43:18.165Z,100508.25
2024-03-11T20:45:48.983Z,100514.19
2024-03-11T20:48:23.061Z,100512.53
2024-03-11T20:50:51.729Z,100507.47
2024-03-11T20:53:24.381Z,100509.91
2024-03-11T20:55:57.386Z,100515.84
2024-03-11T20:58:25.181Z,100520.31
2024-03-11T21:00:53.140Z,100518.75
2024-03-11T21:03:25.602Z,100516.44
2024-03-11T21:05:53.571Z,100523.44
2024-03-11T21:08:21.382Z,100516.69
2024-03-11T21:10:49.525Z,100520.13
2024-03-11T21:13:17.737Z,100509.59
2024-03-11T21:15:45.864Z,100511.03
2024-03-11T21:18:21.449Z,100512.44
2024-03-11T21:21:10.237Z,100519.06
2024-03-11T21:23:41.660Z,100525.44
2024-03-11T21:26:19.195Z,100522.56
2024-03-11T21:28:49.694Z,100518.88
2024-03-11T21:31:29.525Z,100521.19
2024-03-11T21:33:57.482Z,100528.69
2024-03-11T21:36:25.555Z,100515.75
2024-03-11T21:38:53.535Z,100526.56
2024-03-11T21:41:22.684Z,100531.97
2024-03-11T21:43:52.529Z,100523.38
2024-03-11T21:46:25.085Z,100521.72
2024-03-11T21:48:53.309Z,100526.03
2024-03-11T21:51:25.804Z,100526.28
2024-03-11T21:53:53.557Z,100525.50
2024-03-11T21:56:20.917Z,100527.28
2024-03-11T21:58:48.505Z,100527.38
2024-03-11T22:01:16.349Z,100526.50
2024-03-11T22:03:43.873Z,100530.59
2024-03-11T22:06:11.579Z,100534.66
2024-03-11T22:08:39.389Z,100534.53
2024-03-11T22:11:07.254Z,100531.25
2024-03-11T22:13:34.931Z,100533.41
2024-03-11T22:16:02.758Z,100525.56
2024-03-11T22:18:31.120Z,100529.09
2024-03-11T22:20:59.021Z,100527.34
2024-03-11T22:23:27.272Z,100528.84
2024-03-11T22:25:54.708Z,100532.31
2024-03-11T22:28:22.296Z,100532.94
2024-03-11T22:30:49.897Z,100534.69
2024-03-11T22:33:17.357Z,100537.13
2024-03-11T22:35:45.530Z,100530.16
2024-03-11T22:38:13.331Z,100540.44
2024-03-11T22:40:40.833Z,100540.53
2024-03-11T22:43:08.238Z,100537.13
2024-03-11T22:45:35.588Z,100542.09
2024-03-11T22:48:02.949Z,100540.31
2024-03-11T22:50:31.681Z,100531.56
2024-03-11T22:52:59.133Z,100540.84
2024-03-11T22:55:26.490Z,100535.53
2024-03-11T22:57:54.058Z,100534.66
2024-03-11T23:00:44.496Z,100538.06
2024-03-11T23:03:12.812Z,100540.13
2024-03-11T23:05:40.249Z,100535.69
2024-03-11T23:08:08.993Z,100530.50
2024-03-11T23:10:36.385Z,100536.47
2024-03-11T23:13:03.934Z,100542.06
2024-03-11T23:15:31.603Z,100543.03
2024-03-11T23:17:59.034Z,100541.66
2024-03-11T23:20:27.675Z,100536.59
2024-03-11T23:22:56.199Z,100546.97
2024-03-11T23:25:23.710Z,100534.94
2024-03-11T23:27:57.814Z,100534.16
2024-03-11T23:30:29.272Z,100540.78
2024-03-11T23:32:59.521Z,100540.88
2024-03-11T23:35:29.603Z,100532.50
2024-03-11T23:37:58.855Z,100532.50
2024-03-11T23:40:26.204Z,100534.94
2024-03-11T23:42:53.835Z,100536.59
2024-03-11T23:45:21.305Z,100541.66
2024-03-11T23:47:50.605Z,100532.28
2024-03-11T23:50:18.714Z,100535.81
2024-03-11T23:52:46.086Z,100532.63
2024-03-11T23:55:14.960Z,100527.53
2024-03-11T23:57:46.734Z,100529.19
